Glenwood, Alabama
Current Conditions -  °F | °C
As of 3:53 PM on Monday 20 Oct 2014 (Local Time) from KTOI Reporting Station
Clear Clear  
Wind Chill: 76°   Ceiling: Unl
Heat Index: 76°   Visibility: 10mi
Dew Point: 48°   Wind: 6mph
Humidity: 37%   Direction: 260°W
Pressure: 30"   Gusts: NA
Location:  31.66°N, 86.17°W
Report Text: KTOI 202053Z AUTO 26005KT 10SM CLR 24/09 A3000 RMK AO2 SLP156 T02440089 56015
Loading
Personal Weather Stations






























Interactive Weather Map
Tropical Storm Tracking
New forecast layout! Learn more

10-Day Weather Forecast

Advertisements
Track Severe Weather on mobile